Time;durP1;ratioP1;P1;durP2;ratioP2;P2;SDS_P1;SDS_P2;PMS_P1;PMS_P2;Temp;Humidity;BMP_temperature;BMP_pressure;BME280_temperature;BME280_humidity;BME280_pressure;Samples;Min_cycle;Max_cycle;Signal;HPM_P1;HPM_P2
2022/05/14 00:01:28;;;;;;;12.05;2.88;;;14.00;99.90;;;;;;4896857;29;20060;-90
2022/05/14 00:03:55;;;;;;;17.42;3.15;;;14.10;99.90;;;;;;4882036;29;20059;-90
2022/05/14 00:06:24;;;;;;;20.70;3.95;;;14.10;99.90;;;;;;4885223;29;20078;-90
2022/05/14 00:08:52;;;;;;;12.40;3.42;;;14.10;99.90;;;;;;4886357;29;20076;-90
2022/05/14 00:14:08;;;;;;;20.20;5.35;;;14.00;99.90;;;;;;4902811;29;20087;-90
2022/05/14 00:16:36;;;;;;;19.38;3.33;;;14.00;99.90;;;;;;4877558;29;20045;-90
2022/05/14 00:19:05;;;;;;;15.20;3.17;;;13.90;99.90;;;;;;4884220;29;20052;-91
2022/05/14 00:21:34;;;;;;;24.13;4.32;;;13.90;99.90;;;;;;4866426;29;20057;-90
2022/05/14 00:24:03;;;;;;;16.65;3.88;;;13.90;99.90;;;;;;4897990;29;20085;-90
2022/05/14 00:26:30;;;;;;;18.30;4.45;;;13.90;99.90;;;;;;4880886;29;20495;-91
2022/05/14 00:28:58;;;;;;;16.15;4.07;;;13.80;99.90;;;;;;4881177;29;20055;-90
2022/05/14 00:31:25;;;;;;;20.73;3.58;;;13.80;99.90;;;;;;4897739;29;20049;-90
2022/05/14 00:33:53;;;;;;;14.15;3.17;;;13.80;99.90;;;;;;4865553;29;20080;-90
2022/05/14 00:36:19;;;;;;;18.98;4.28;;;13.80;99.90;;;;;;4865813;29;20119;-90
2022/05/14 00:38:48;;;;;;;13.13;3.50;;;13.80;99.90;;;;;;4881796;29;20380;-90
2022/05/14 00:41:15;;;;;;;11.85;2.58;;;13.80;99.90;;;;;;4865872;29;20078;-91
2022/05/14 00:43:56;;;;;;;18.73;4.40;;;13.80;99.90;;;;;;4865451;29;20055;-90
2022/05/14 00:46:28;;;;;;;13.98;3.25;;;13.80;99.90;;;;;;4882270;29;20052;-90
2022/05/14 00:48:59;;;;;;;16.15;3.97;;;13.80;99.90;;;;;;4884683;29;20116;-90
2022/05/14 00:51:34;;;;;;;14.95;3.92;;;13.80;99.90;;;;;;4870249;29;20052;-90
2022/05/14 00:54:12;;;;;;;11.27;2.92;;;13.80;99.90;;;;;;4901357;29;20045;-90
2022/05/14 00:57:03;;;;;;;14.90;3.13;;;13.80;99.90;;;;;;4870261;29;20076;-90
2022/05/14 00:59:30;;;;;;;18.92;3.58;;;13.80;99.90;;;;;;4884941;29;20056;-90
2022/05/14 01:01:59;;;;;;;14.10;3.35;;;13.80;99.90;;;;;;4884317;29;20053;-90
2022/05/14 01:04:29;;;;;;;11.20;2.67;;;13.70;99.90;;;;;;4884477;29;20414;-90
2022/05/14 01:07:10;;;;;;;23.95;3.60;;;13.80;99.90;;;;;;4885242;29;20418;-90
2022/05/14 01:09:43;;;;;;;12.50;3.13;;;13.70;99.90;;;;;;4884959;29;20045;-90
2022/05/14 01:12:12;;;;;;;21.17;3.85;;;13.70;99.90;;;;;;4887924;29;20041;-91
2022/05/14 01:14:40;;;;;;;11.43;2.80;;;13.70;99.90;;;;;;4888462;29;20139;-90
2022/05/14 01:17:07;;;;;;;12.65;3.72;;;13.70;99.90;;;;;;4884206;29;20076;-90
2022/05/14 01:19:35;;;;;;;15.05;3.20;;;13.70;99.90;;;;;;4884198;29;20060;-90
2022/05/14 01:22:24;;;;;;;7.80;2.50;;;13.70;99.90;;;;;;4884249;29;20044;-90
2022/05/14 01:28:00;;;;;;;19.45;4.15;;;13.70;99.90;;;;;;4887045;29;20078;-90
2022/05/14 01:30:29;;;;;;;11.90;3.50;;;13.60;99.90;;;;;;4875107;29;20599;-90
2022/05/14 01:33:06;;;;;;;8.88;2.45;;;13.60;99.90;;;;;;4887393;29;20100;-90
2022/05/14 01:35:43;;;;;;;10.55;3.20;;;13.60;99.90;;;;;;4884436;29;20041;-90
2022/05/14 01:38:11;;;;;;;10.43;2.78;;;13.60;99.90;;;;;;4883851;29;20056;-90
2022/05/14 01:40:40;;;;;;;9.55;2.53;;;13.60;99.90;;;;;;4883793;29;20036;-90
2022/05/14 01:43:07;;;;;;;6.47;2.28;;;13.60;99.90;;;;;;4868205;29;20121;-90
2022/05/14 01:45:34;;;;;;;11.32;3.05;;;13.60;99.90;;;;;;4868094;29;20072;-90
2022/05/14 01:48:03;;;;;;;9.18;3.17;;;13.50;99.90;;;;;;4883541;29;20510;-90
2022/05/14 01:50:30;;;;;;;12.45;2.75;;;13.50;99.90;;;;;;4852769;29;20131;-91
2022/05/14 01:52:57;;;;;;;9.77;2.60;;;13.50;99.90;;;;;;4883169;29;20048;-90
2022/05/14 01:55:24;;;;;;;11.35;2.88;;;13.50;99.90;;;;;;4883769;29;20040;-90
2022/05/14 01:57:51;;;;;;;10.55;3.45;;;13.50;99.90;;;;;;4882297;29;20068;-89
2022/05/14 02:00:21;;;;;;;8.15;2.05;;;13.50;99.90;;;;;;4884649;29;20044;-90
2022/05/14 02:02:51;;;;;;;13.90;3.17;;;13.50;99.90;;;;;;4883600;29;20492;-90
2022/05/14 02:05:19;;;;;;;11.07;2.47;;;13.40;99.90;;;;;;4883343;29;20120;-90
2022/05/14 02:07:49;;;;;;;7.82;2.65;;;13.40;99.90;;;;;;4883721;29;20073;-90
2022/05/14 02:10:16;;;;;;;9.95;2.22;;;13.40;99.90;;;;;;4883733;29;20053;-90
2022/05/14 02:12:45;;;;;;;7.50;2.72;;;13.40;99.90;;;;;;4890987;29;20052;-90
2022/05/14 02:15:12;;;;;;;10.63;2.90;;;13.40;99.90;;;;;;4891364;29;20060;-91
2022/05/14 02:17:40;;;;;;;14.80;3.08;;;13.40;99.90;;;;;;4876415;29;20052;-91
2022/05/14 02:20:08;;;;;;;10.55;2.75;;;13.30;99.90;;;;;;4873053;29;20052;-90
2022/05/14 02:22:35;;;;;;;8.77;2.25;;;13.30;99.90;;;;;;4883082;29;20078;-90
2022/05/14 02:25:08;;;;;;;9.80;2.38;;;13.30;99.90;;;;;;4868290;29;20052;-90
2022/05/14 02:27:37;;;;;;;10.57;3.10;;;13.30;99.90;;;;;;4882655;29;20507;-91
2022/05/14 02:30:06;;;;;;;12.20;2.30;;;13.30;99.90;;;;;;4882957;29;20040;-90
2022/05/14 02:32:33;;;;;;;8.82;2.33;;;13.30;99.90;;;;;;4882658;29;20048;-90
2022/05/14 02:35:00;;;;;;;12.65;2.38;;;13.30;99.90;;;;;;4867162;29;20048;-90
2022/05/14 02:37:27;;;;;;;8.77;2.45;;;13.20;99.90;;;;;;4882367;29;20067;-89
2022/05/14 02:39:55;;;;;;;17.75;2.67;;;13.20;99.90;;;;;;4867439;29;20076;-90
2022/05/14 02:42:22;;;;;;;10.13;2.35;;;13.20;99.90;;;;;;4882489;29;20045;-90
2022/05/14 02:44:49;;;;;;;10.18;2.63;;;13.20;99.90;;;;;;4882462;29;20072;-91
2022/05/14 02:47:17;;;;;;;13.52;3.72;;;13.10;99.90;;;;;;4866982;29;20380;-90
2022/05/14 02:49:44;;;;;;;3.97;1.88;;;13.10;99.90;;;;;;4866998;29;20052;-90
2022/05/14 02:52:12;;;;;;;12.65;2.40;;;13.10;99.90;;;;;;4867192;29;20040;-89
2022/05/14 02:54:39;;;;;;;15.57;2.50;;;13.10;99.90;;;;;;4882460;29;20095;-90
2022/05/14 02:57:07;;;;;;;10.13;2.42;;;13.10;99.90;;;;;;4882315;29;20606;-90
2022/05/14 02:59:34;;;;;;;10.35;2.22;;;13.10;99.90;;;;;;4867254;29;20475;-91
2022/05/14 03:02:03;;;;;;;7.47;2.28;;;13.10;99.90;;;;;;4882727;29;20384;-90
2022/05/14 03:04:36;;;;;;;7.18;1.88;;;13.10;99.90;;;;;;4882524;29;20052;-90
2022/05/14 03:07:04;;;;;;;;;;;13.10;99.90;;;;;;4884004;29;20419;-89
2022/05/14 03:09:33;;;;;;;7.90;2.05;;;13.00;99.90;;;;;;4883025;29;19923;-90
2022/05/14 03:12:00;;;;;;;10.02;2.38;;;13.00;99.90;;;;;;4899711;29;20104;-90
2022/05/14 03:14:28;;;;;;;7.95;1.95;;;13.00;99.90;;;;;;4899837;29;20097;-89
2022/05/14 03:16:55;;;;;;;5.68;2.17;;;13.00;99.90;;;;;;4867016;29;20566;-89
2022/05/14 03:19:23;;;;;;;7.80;2.22;;;13.00;99.90;;;;;;4886302;29;20627;-90
2022/05/14 03:21:50;;;;;;;11.15;1.90;;;13.00;99.90;;;;;;4884430;29;20055;-89
2022/05/14 03:24:18;;;;;;;11.45;2.40;;;12.90;99.90;;;;;;4882926;29;20059;-89
2022/05/14 03:26:46;;;;;;;8.38;2.05;;;13.00;99.90;;;;;;4882462;29;20059;-89
2022/05/14 03:29:13;;;;;;;8.68;1.98;;;12.90;99.90;;;;;;4881884;29;20494;-89
2022/05/14 03:31:40;;;;;;;7.90;2.10;;;12.90;99.90;;;;;;4866334;29;20048;-89
2022/05/14 03:34:11;;;;;;;7.75;1.63;;;12.90;99.90;;;;;;4897216;29;21437;-90
2022/05/14 03:36:41;;;;;;;6.82;2.38;;;12.90;99.90;;;;;;4881779;29;20068;-90
2022/05/14 03:39:09;;;;;;;5.65;1.55;;;12.90;99.90;;;;;;4866225;29;20076;-90
2022/05/14 03:41:36;;;;;;;8.75;2.22;;;12.90;99.90;;;;;;4881113;29;20059;-89
2022/05/14 03:44:03;;;;;;;4.88;2.20;;;12.90;99.90;;;;;;4865735;29;20414;-90
2022/05/14 03:46:31;;;;;;;6.72;2.00;;;12.90;99.90;;;;;;4881414;29;20055;-89
2022/05/14 03:48:58;;;;;;;6.07;1.85;;;12.90;99.90;;;;;;4878398;29;20471;-90
2022/05/14 03:51:26;;;;;;;5.28;1.67;;;12.90;99.90;;;;;;4878781;29;20058;-90
2022/05/14 03:53:54;;;;;;;5.85;2.15;;;12.90;99.90;;;;;;4881018;29;20081;-89
2022/05/14 03:56:21;;;;;;;5.05;1.92;;;12.90;99.90;;;;;;4865972;29;20479;-89
2022/05/14 03:58:48;;;;;;;7.15;2.00;;;12.80;99.90;;;;;;4881142;29;20040;-89
2022/05/14 04:01:15;;;;;;;11.57;2.42;;;12.80;99.90;;;;;;4898251;29;20093;-89
2022/05/14 04:03:43;;;;;;;14.60;2.90;;;12.80;99.90;;;;;;4880993;29;20041;-90
2022/05/14 04:06:11;;;;;;;3.05;1.80;;;12.80;99.90;;;;;;4881256;29;20044;-89
2022/05/14 04:08:39;;;;;;;3.78;1.67;;;12.80;99.90;;;;;;4881033;29;20040;-90
2022/05/14 04:11:06;;;;;;;4.97;2.03;;;12.80;99.90;;;;;;4882147;29;20041;-90
2022/05/14 04:13:34;;;;;;;10.95;2.15;;;12.80;99.90;;;;;;4868989;29;20055;-89
2022/05/14 04:16:01;;;;;;;4.20;1.77;;;12.70;99.90;;;;;;4867708;29;20040;-90
2022/05/14 04:18:29;;;;;;;7.47;2.40;;;12.70;99.90;;;;;;4881511;29;20402;-90
2022/05/14 04:20:58;;;;;;;4.05;2.22;;;12.70;99.90;;;;;;4887396;29;20049;-90
2022/05/14 04:23:28;;;;;;;3.65;1.90;;;12.70;99.90;;;;;;4882177;29;20057;-89
2022/05/14 04:25:57;;;;;;;5.13;2.10;;;12.70;99.90;;;;;;4883436;29;20522;-90
2022/05/14 04:28:25;;;;;;;7.32;2.00;;;12.70;99.90;;;;;;4886035;29;20418;-89
2022/05/14 04:30:53;;;;;;;5.18;1.98;;;12.70;99.90;;;;;;4866007;29;20065;-90
2022/05/14 04:33:21;;;;;;;2.38;1.30;;;12.70;99.90;;;;;;4865447;29;20135;-89
2022/05/14 04:35:48;;;;;;;4.50;1.77;;;12.70;99.90;;;;;;4865795;29;20443;-89
2022/05/14 04:38:15;;;;;;;7.28;1.70;;;12.70;99.90;;;;;;4850215;29;20049;-89
2022/05/14 04:40:44;;;;;;;5.75;2.20;;;12.70;99.90;;;;;;4898116;29;20091;-90
2022/05/14 04:43:12;;;;;;;8.90;1.95;;;12.70;99.90;;;;;;4865125;29;20048;-90
2022/05/14 04:45:40;;;;;;;3.28;1.50;;;12.70;99.90;;;;;;4865640;29;20463;-89
2022/05/14 04:48:10;;;;;;;6.05;1.80;;;12.60;99.90;;;;;;4880933;29;20471;-90
2022/05/14 04:50:39;;;;;;;4.45;2.03;;;12.70;99.90;;;;;;4880890;29;20044;-90
2022/05/14 04:53:06;;;;;;;7.78;1.88;;;12.70;99.90;;;;;;4880956;29;20128;-90
2022/05/14 04:55:34;;;;;;;3.38;1.58;;;12.60;99.90;;;;;;4880914;29;20503;-90
2022/05/14 04:58:01;;;;;;;7.93;1.58;;;12.70;99.90;;;;;;4881140;29;20040;-89
2022/05/14 05:00:28;;;;;;;5.70;2.03;;;12.60;99.90;;;;;;4881168;29;20048;-90
2022/05/14 05:05:40;;;;;;;14.15;2.95;;;12.60;99.90;;;;;;4880683;29;20055;-89
2022/05/14 05:08:07;;;;;;;7.80;2.47;;;12.60;99.90;;;;;;4880525;29;20139;-89
2022/05/14 05:10:34;;;;;;;8.10;2.30;;;12.60;99.90;;;;;;4865174;29;20477;-90
2022/05/14 05:13:01;;;;;;;10.93;3.05;;;12.60;99.90;;;;;;4865133;29;20139;-90
2022/05/14 05:15:28;;;;;;;13.20;2.40;;;12.60;99.90;;;;;;4865804;29;20483;-90
2022/05/14 05:17:55;;;;;;;11.50;3.38;;;12.60;99.90;;;;;;4865439;29;20045;-89
2022/05/14 05:20:22;;;;;;;9.73;2.60;;;12.60;99.90;;;;;;4864974;29;20049;-89
2022/05/14 05:22:49;;;;;;;13.48;2.63;;;12.70;99.90;;;;;;4880548;29;20415;-90
2022/05/14 05:25:17;;;;;;;15.55;3.72;;;12.70;99.90;;;;;;4897411;29;20055;-90
2022/05/14 05:27:44;;;;;;;13.57;2.42;;;12.70;99.90;;;;;;4885368;29;20056;-90
2022/05/14 05:30:12;;;;;;;7.03;2.25;;;12.80;99.90;;;;;;4869579;29;20494;-89
2022/05/14 05:32:39;;;;;;;16.48;2.90;;;12.80;99.90;;;;;;4885190;29;20056;-90
2022/05/14 05:35:07;;;;;;;13.15;3.40;;;12.80;99.90;;;;;;4884090;29;20041;-89
2022/05/14 05:37:35;;;;;;;11.27;3.00;;;12.90;99.90;;;;;;4884121;29;20048;-90
2022/05/14 05:40:03;;;;;;;4.32;1.67;;;12.90;99.90;;;;;;4868241;29;20139;-90
2022/05/14 05:42:30;;;;;;;10.65;2.60;;;12.90;99.90;;;;;;4883558;29;20048;-89
2022/05/14 05:44:56;;;;;;;8.98;2.63;;;12.90;99.90;;;;;;4900058;29;20135;-89
2022/05/14 05:47:24;;;;;;;16.60;2.70;;;13.00;99.90;;;;;;4868742;29;20437;-90
2022/05/14 05:49:51;;;;;;;10.05;2.22;;;13.00;99.90;;;;;;4883857;29;20053;-91
2022/05/14 05:52:22;;;;;;;12.32;3.20;;;13.10;99.90;;;;;;4884012;29;20125;-90
2022/05/14 05:57:52;;;;;;;13.45;3.55;;;13.20;99.90;;;;;;4806384;29;20059;-91
2022/05/14 06:00:28;;;;;;;8.68;2.13;;;13.30;99.90;;;;;;4869785;29;20133;-91
2022/05/14 06:03:46;;;;;;;7.93;2.38;;;13.30;99.90;;;;;;4868991;29;20854;-93
2022/05/14 06:06:31;;;;;;;19.30;3.70;;;13.30;99.90;;;;;;4865596;29;20080;-92
2022/05/14 06:09:00;;;;;;;6.47;1.65;;;13.20;99.90;;;;;;4865715;29;20151;-90
2022/05/14 06:11:29;;;;;;;13.38;2.60;;;13.20;99.90;;;;;;4882190;29;20052;-91
2022/05/14 06:14:19;;;;;;;9.60;1.77;;;13.20;99.90;;;;;;4867822;29;20045;-93
2022/05/14 06:16:52;;;;;;;16.45;3.83;;;13.30;99.90;;;;;;4887138;29;20036;-90
2022/05/14 06:19:30;;;;;;;7.43;1.88;;;13.40;99.90;;;;;;4858656;29;20045;-92
2022/05/14 06:22:23;;;;;;;11.75;2.70;;;13.30;99.90;;;;;;4889265;29;20124;-91
2022/05/14 06:25:05;;;;;;;11.98;2.45;;;13.40;99.90;;;;;;4888801;29;20042;-90
2022/05/14 06:27:38;;;;;;;11.73;2.33;;;13.40;99.90;;;;;;4865125;29;20041;-92
2022/05/14 06:30:10;;;;;;;15.13;2.33;;;13.50;99.90;;;;;;4890265;29;20360;-92
2022/05/14 06:32:38;;;;;;;4.78;1.70;;;13.50;99.90;;;;;;4884321;29;20418;-90
2022/05/14 06:35:08;;;;;;;16.33;3.22;;;13.40;99.90;;;;;;4901831;29;20048;-91
2022/05/14 06:37:36;;;;;;;8.30;2.22;;;13.50;99.90;;;;;;4891879;29;20052;-90
2022/05/14 06:40:04;;;;;;;11.48;2.45;;;13.40;99.90;;;;;;4883552;29;20507;-90
2022/05/14 06:42:32;;;;;;;7.22;2.20;;;13.40;99.90;;;;;;4898701;29;20080;-91
2022/05/14 06:45:00;;;;;;;17.15;3.17;;;13.40;99.90;;;;;;4879916;29;20037;-92
2022/05/14 06:47:28;;;;;;;9.20;2.20;;;13.40;99.90;;;;;;4883546;29;20123;-90
2022/05/14 06:49:56;;;;;;;8.68;2.17;;;13.60;99.90;;;;;;4900123;29;20047;-91
2022/05/14 06:52:23;;;;;;;9.25;2.13;;;13.50;99.90;;;;;;4899783;29;20037;-93
2022/05/14 06:54:51;;;;;;;11.98;2.42;;;13.60;99.90;;;;;;4882881;29;20048;-90
2022/05/14 06:57:20;;;;;;;13.57;2.65;;;13.50;99.90;;;;;;4898732;29;20062;-91
2022/05/14 07:00:03;;;;;;;9.07;2.95;;;13.60;99.90;;;;;;4867846;29;20521;-91
2022/05/14 07:02:36;;;;;;;5.57;2.45;;;13.60;99.90;;;;;;4870540;29;20048;-91
2022/05/14 07:07:51;;;;;;;7.15;2.10;;;13.60;99.90;;;;;;4880131;29;20518;-91
2022/05/14 07:10:22;;;;;;;23.73;2.97;;;13.60;99.90;;;;;;4889104;29;20048;-92
2022/05/14 07:12:49;;;;;;;12.63;2.95;;;13.70;99.90;;;;;;4879141;29;20053;-91
2022/05/14 07:15:17;;;;;;;8.75;3.65;;;13.70;99.90;;;;;;4876761;29;20135;-91
2022/05/14 07:17:44;;;;;;;9.90;2.38;;;13.70;99.90;;;;;;4882213;29;20036;-89
2022/05/14 07:20:11;;;;;;;8.93;2.38;;;13.70;99.90;;;;;;4898551;29;20044;-91
2022/05/14 07:22:38;;;;;;;11.18;3.28;;;13.80;99.90;;;;;;4882158;29;20059;-89
2022/05/14 07:25:08;;;;;;;15.55;3.00;;;13.80;99.90;;;;;;4881848;29;20044;-91
2022/05/14 07:27:40;;;;;;;4.97;1.93;;;13.80;99.90;;;;;;4867301;29;20240;-91
2022/05/14 07:30:07;;;;;;;8.40;3.28;;;13.90;99.90;;;;;;4866278;29;20124;-92
2022/05/14 07:32:34;;;;;;;12.93;4.00;;;13.90;99.90;;;;;;4878872;29;20045;-90
2022/05/14 07:35:05;;;;;;;9.77;3.35;;;14.00;99.90;;;;;;4849526;29;20408;-92
2022/05/14 07:37:39;;;;;;;13.32;2.83;;;13.90;99.90;;;;;;4864225;29;20064;-90
2022/05/14 07:40:14;;;;;;;10.02;2.20;;;13.90;99.90;;;;;;4864276;29;20076;-91
2022/05/14 07:42:55;;;;;;;11.95;2.47;;;14.00;99.90;;;;;;4876625;29;20053;-90
2022/05/14 07:45:32;;;;;;;13.18;2.53;;;13.90;99.90;;;;;;4865039;29;20045;-86
2022/05/14 07:48:06;;;;;;;;;;;13.90;99.90;;;;;;4851797;29;20041;-91
2022/05/14 07:50:39;;;;;;;11.50;2.67;;;13.90;99.90;;;;;;4880528;29;19927;-91
2022/05/14 07:53:06;;;;;;;6.93;1.98;;;14.10;99.90;;;;;;4866073;29;20076;-90
2022/05/14 07:55:34;;;;;;;14.52;3.20;;;14.20;99.90;;;;;;4880476;29;20048;-91
2022/05/14 07:58:03;;;;;;;12.50;3.63;;;14.20;99.90;;;;;;4866441;29;20147;-90
2022/05/14 08:00:31;;;;;;;17.85;3.65;;;14.00;99.90;;;;;;4881544;29;20052;-91
2022/05/14 08:02:58;;;;;;;12.63;2.92;;;14.10;99.90;;;;;;4898229;29;20495;-90
2022/05/14 08:05:25;;;;;;;12.10;2.72;;;14.10;99.90;;;;;;4881323;29;20054;-90
2022/05/14 08:07:52;;;;;;;6.93;2.78;;;14.10;99.90;;;;;;4881568;29;20143;-90
2022/05/14 08:10:19;;;;;;;11.95;3.42;;;14.20;99.90;;;;;;4881726;29;20048;-91
2022/05/14 08:12:51;;;;;;;10.60;2.95;;;14.10;99.90;;;;;;4881891;29;20100;-91
2022/05/14 08:15:23;;;;;;;10.70;2.88;;;14.20;99.90;;;;;;4882067;29;20044;-90
2022/05/14 08:17:50;;;;;;;21.88;3.85;;;14.20;99.90;;;;;;4882898;29;20048;-90
2022/05/14 08:20:19;;;;;;;19.15;3.47;;;14.30;99.90;;;;;;4891122;29;20406;-91
2022/05/14 08:25:33;;;;;;;13.70;3.55;;;14.40;99.90;;;;;;4889165;29;20061;-91
2022/05/14 08:28:00;;;;;;;9.93;2.42;;;14.40;99.90;;;;;;4882877;29;20053;-91
2022/05/14 08:30:32;;;;;;;20.48;4.30;;;14.40;99.90;;;;;;4882236;29;20049;-90
2022/05/14 08:32:59;;;;;;;19.55;3.63;;;14.50;99.90;;;;;;4881737;29;20411;-91
2022/05/14 08:35:28;;;;;;;9.45;2.60;;;14.50;99.90;;;;;;4881804;29;20072;-91
2022/05/14 08:37:56;;;;;;;16.17;3.17;;;14.40;99.90;;;;;;4882313;29;20048;-91
2022/05/14 08:40:31;;;;;;;20.30;3.38;;;14.30;99.90;;;;;;4867670;29;20044;-91
2022/05/14 08:43:06;;;;;;;12.98;3.38;;;14.30;99.90;;;;;;4888512;29;20045;-91
2022/05/14 08:45:37;;;;;;;10.45;2.60;;;14.50;99.90;;;;;;4881628;29;20048;-90
2022/05/14 08:48:21;;;;;;;11.80;2.83;;;14.40;99.90;;;;;;4865962;29;20055;-91
2022/05/14 08:51:14;;;;;;;16.25;2.90;;;14.30;99.90;;;;;;4881052;29;20052;-91
2022/05/14 08:53:48;;;;;;;9.07;3.40;;;14.30;99.90;;;;;;4877004;29;20049;-91
2022/05/14 08:56:22;;;;;;;8.95;2.03;;;14.50;99.90;;;;;;4881627;29;20075;-91
2022/05/14 08:58:52;;;;;;;12.93;2.83;;;14.50;99.90;;;;;;4881063;29;20052;-91
2022/05/14 09:01:31;;;;;;;11.15;3.25;;;14.50;99.90;;;;;;4881739;29;20072;-90
2022/05/14 09:03:58;;;;;;;19.05;3.85;;;14.60;99.90;;;;;;4865219;29;20148;-90
2022/05/14 09:06:25;;;;;;;15.73;4.20;;;14.60;99.90;;;;;;4880791;29;20112;-91
2022/05/14 09:08:52;;;;;;;11.18;2.70;;;14.80;99.90;;;;;;4869318;29;20056;-92
2022/05/14 09:11:26;;;;;;;18.70;4.30;;;14.80;99.90;;;;;;4884401;29;20080;-91
2022/05/14 09:14:00;;;;;;;21.58;3.80;;;14.80;99.90;;;;;;4884857;29;20131;-90
2022/05/14 09:16:34;;;;;;;16.02;3.72;;;14.90;99.90;;;;;;4884820;29;20047;-91
2022/05/14 09:19:19;;;;;;;17.67;3.97;;;15.00;99.90;;;;;;4885510;29;20104;-91
2022/05/14 09:22:11;;;;;;;10.10;2.80;;;15.10;99.90;;;;;;4870354;29;20061;-91
2022/05/14 09:25:35;;;;;;;18.30;3.47;;;14.90;99.90;;;;;;4868275;29;20172;-91
2022/05/14 09:28:10;;;;;;;22.15;3.50;;;14.90;99.90;;;;;;4828063;29;20054;-91
2022/05/14 09:30:42;;;;;;;11.63;3.13;;;15.10;99.90;;;;;;4884339;29;20537;-90
2022/05/14 09:33:25;;;;;;;8.43;2.58;;;15.00;99.90;;;;;;4885126;29;20482;-91
2022/05/14 09:35:58;;;;;;;11.00;3.42;;;14.90;99.90;;;;;;4884884;29;20045;-91
2022/05/14 09:38:27;;;;;;;15.63;4.75;;;15.00;99.90;;;;;;4901927;29;20100;-91
2022/05/14 09:41:06;;;;;;;14.70;3.63;;;15.00;99.90;;;;;;4884260;29;20078;-91
2022/05/14 09:43:37;;;;;;;19.08;3.65;;;15.10;99.90;;;;;;4884256;29;20045;-90
2022/05/14 09:46:22;;;;;;;14.18;3.25;;;15.20;99.90;;;;;;4884139;29;20044;-90
2022/05/14 09:48:53;;;;;;;11.85;3.40;;;15.20;99.90;;;;;;4884882;29;20060;-90
2022/05/14 09:51:29;;;;;;;13.40;4.03;;;15.30;99.90;;;;;;4883614;29;20566;-91
2022/05/14 09:54:16;;;;;;;16.13;4.05;;;15.30;99.90;;;;;;4900907;29;20045;-90
2022/05/14 09:57:03;;;;;;;18.88;3.72;;;15.50;99.90;;;;;;4884037;29;20108;-91
2022/05/14 09:59:49;;;;;;;8.60;3.40;;;15.50;99.90;;;;;;4869854;29;20048;-91
2022/05/14 10:02:43;;;;;;;9.70;3.95;;;15.20;99.90;;;;;;4884180;29;20139;-91
2022/05/14 10:05:32;;;;;;;;;;;15.20;99.90;;;;;;4901091;29;20392;-91
2022/05/14 10:08:14;;;;;;;26.92;4.88;;;15.40;99.90;;;;;;4884606;29;19923;-91
2022/05/14 10:10:51;;;;;;;13.85;3.22;;;15.60;99.90;;;;;;4883542;29;20048;-91
2022/05/14 10:13:40;;;;;;;11.80;2.97;;;15.60;99.40;;;;;;4900433;29;20514;-90
2022/05/14 10:16:36;;;;;;;10.30;4.63;;;15.50;99.90;;;;;;4883339;29;20055;-91
2022/05/14 10:19:34;;;;;;;15.18;4.13;;;15.60;97.80;;;;;;4889890;29;20048;-93
2022/05/14 10:22:07;;;;;;;12.90;3.65;;;15.80;99.90;;;;;;4885636;29;20091;-90
2022/05/14 10:27:56;;;;;;;11.23;3.78;;;15.70;99.90;;;;;;4900162;29;20123;-91
2022/05/14 10:30:29;;;;;;;15.65;4.35;;;15.90;99.90;;;;;;4883005;29;20045;-90
2022/05/14 10:33:06;;;;;;;20.27;4.68;;;15.90;99.30;;;;;;4867511;29;20097;-91
2022/05/14 10:35:59;;;;;;;12.93;2.95;;;16.00;99.90;;;;;;4868278;29;20530;-90
2022/05/14 10:38:46;;;;;;;18.60;4.30;;;15.90;97.30;;;;;;4878258;29;20059;-91
2022/05/14 10:41:27;;;;;;;15.32;3.40;;;15.90;98.00;;;;;;4882663;29;20064;-91
2022/05/14 10:44:22;;;;;;;10.95;4.20;;;16.00;97.20;;;;;;4883294;29;20049;-91
2022/05/14 10:46:52;;;;;;;9.63;3.65;;;16.10;99.90;;;;;;4863785;29;20056;-90
2022/05/14 10:50:04;;;;;;;15.65;3.75;;;16.20;95.70;;;;;;4899518;29;20046;-90
2022/05/14 10:52:32;;;;;;;9.57;3.60;;;16.40;97.30;;;;;;4871343;29;20055;-91
2022/05/14 10:55:01;;;;;;;16.95;4.05;;;16.40;93.80;;;;;;4867037;29;20049;-91
2022/05/14 10:57:59;;;;;;;19.23;4.90;;;16.60;99.20;;;;;;4882444;29;20494;-91
2022/05/14 11:00:29;;;;;;;9.52;2.88;;;16.70;96.60;;;;;;4882864;29;20104;-90
2022/05/14 11:03:09;;;;;;;9.15;3.40;;;16.70;92.00;;;;;;4883712;29;20112;-91
2022/05/14 11:05:54;;;;;;;;;;;16.80;95.00;;;;;;4885770;29;20056;-90
2022/05/14 11:08:32;;;;;;;15.57;5.05;;;16.80;91.90;;;;;;4899731;29;19935;-90
2022/05/14 11:11:11;;;;;;;16.35;3.80;;;16.90;93.00;;;;;;4900142;29;20064;-92
2022/05/14 11:13:59;;;;;;;12.32;3.88;;;17.00;89.90;;;;;;4899409;29;20083;-89
2022/05/14 11:16:50;;;;;;;15.00;3.67;;;17.10;89.90;;;;;;4883426;29;20056;-92
2022/05/14 11:19:32;;;;;;;17.38;3.75;;;17.30;91.30;;;;;;4869206;29;20056;-91
2022/05/14 11:22:05;;;;;;;11.60;3.25;;;17.40;90.00;;;;;;4886017;29;20045;-91
2022/05/14 11:24:35;;;;;;;8.77;2.78;;;17.40;72.10;;;;;;4887738;29;20152;-91
2022/05/14 11:27:03;;;;;;;10.82;3.42;;;17.50;82.80;;;;;;4883629;29;20056;-91
2022/05/14 11:29:51;;;;;;;14.57;3.00;;;17.50;75.00;;;;;;4882460;29;20147;-91
2022/05/14 11:32:21;;;;;;;7.22;3.40;;;17.50;78.00;;;;;;4882196;29;20431;-91
2022/05/14 11:34:53;;;;;;;6.28;2.63;;;17.60;74.10;;;;;;4881689;29;20052;-91
2022/05/14 11:37:39;;;;;;;14.73;3.80;;;17.70;69.60;;;;;;4882682;29;20088;-92
2022/05/14 11:40:19;;;;;;;17.92;3.60;;;17.80;64.20;;;;;;4866888;29;20131;-91
2022/05/14 11:42:53;;;;;;;8.18;3.05;;;17.90;57.90;;;;;;4898588;29;20056;-91
2022/05/14 11:45:29;;;;;;;14.38;3.33;;;17.90;61.80;;;;;;4881696;29;20480;-92
2022/05/14 11:48:01;;;;;;;16.45;3.97;;;18.10;47.90;;;;;;4881290;29;20668;-91
2022/05/14 11:50:56;;;;;;;10.65;3.22;;;18.20;50.90;;;;;;4898446;29;20124;-91
2022/05/14 11:53:57;;;;;;;20.25;4.70;;;18.30;33.60;;;;;;4881440;29;20490;-91
2022/05/14 11:56:44;;;;;;;13.02;4.15;;;18.40;35.40;;;;;;4863723;29;20104;-91
2022/05/14 11:59:27;;;;;;;8.40;2.83;;;18.50;25.00;;;;;;4898506;29;20120;-91
2022/05/14 12:01:59;;;;;;;15.40;3.10;;;18.60;19.50;;;;;;4881638;29;20064;-92
2022/05/14 12:04:31;;;;;;;7.80;3.00;;;18.70;15.80;;;;;;4881630;29;20079;-91
2022/05/14 12:07:19;;;;;;;13.15;3.33;;;18.70;12.60;;;;;;4866496;29;20143;-92
2022/05/14 12:10:12;;;;;;;8.73;3.25;;;18.80;4.30;;;;;;4881397;29;20152;-92
2022/05/14 12:12:48;;;;;;;18.90;5.55;;;18.90;11.10;;;;;;4865838;29;20117;-92
2022/05/14 12:15:22;;;;;;;15.23;3.67;;;19.00;1.00;;;;;;4881041;29;20112;-92
2022/05/14 12:17:54;;;;;;;7.60;2.22;;;19.10;1.00;;;;;;4881265;29;20057;-92
2022/05/14 12:20:30;;;;;;;14.70;3.83;;;19.20;1.00;;;;;;4881650;29;20052;-92
2022/05/14 12:23:05;;;;;;;11.90;3.90;;;19.10;1.00;;;;;;4881270;29;20112;-91
2022/05/14 12:25:47;;;;;;;16.27;3.60;;;19.30;1.00;;;;;;4881958;29;20063;-91
2022/05/14 12:28:26;;;;;;;9.38;3.42;;;19.40;1.00;;;;;;4866107;29;20502;-92
2022/05/14 12:34:04;;;;;;;7.03;2.28;;;19.60;1.00;;;;;;4880772;29;20755;-92
2022/05/14 12:36:44;;;;;;;9.43;2.63;;;19.70;1.00;;;;;;4880964;29;20048;-91
2022/05/14 12:39:22;;;;;;;11.65;3.50;;;19.60;1.00;;;;;;4865679;29;20049;-91
2022/05/14 12:42:10;;;;;;;13.10;3.13;;;19.90;1.00;;;;;;4881529;29;20064;-91
2022/05/14 12:44:47;;;;;;;15.57;5.00;;;19.80;1.00;;;;;;4884619;29;20079;-92
2022/05/14 12:47:30;;;;;;;11.80;3.53;;;19.80;1.00;;;;;;4885446;29;20060;-91
2022/05/14 12:49:57;;;;;;;7.75;2.35;;;19.90;1.00;;;;;;4885180;29;20495;-92
2022/05/14 12:52:32;;;;;;;14.70;3.65;;;20.00;1.00;;;;;;4885259;29;20061;-92
2022/05/14 12:55:12;;;;;;;14.60;3.55;;;20.10;1.00;;;;;;4885110;29;20055;-92
2022/05/14 12:57:43;;;;;;;10.80;3.13;;;20.00;1.00;;;;;;4884802;29;20050;-92
2022/05/14 13:00:15;;;;;;;11.13;2.85;;;20.10;1.00;;;;;;4884829;29;20055;-91
2022/05/14 13:02:47;;;;;;;10.65;4.35;;;20.20;1.00;;;;;;4869219;29;20815;-91
2022/05/14 13:05:21;;;;;;;17.25;4.50;;;20.30;1.00;;;;;;4884546;29;20062;-91
2022/05/14 13:07:54;;;;;;;14.15;5.18;;;20.20;1.00;;;;;;4884535;29;20049;-92
2022/05/14 13:10:25;;;;;;;8.20;3.35;;;20.30;1.00;;;;;;4901352;29;20048;-91
2022/05/14 13:13:02;;;;;;;12.65;2.95;;;20.30;1.00;;;;;;4901176;29;20048;-92
2022/05/14 13:15:41;;;;;;;6.35;2.50;;;20.50;1.00;;;;;;4884656;29;20052;-92
2022/05/14 13:18:15;;;;;;;9.52;4.15;;;20.70;1.00;;;;;;4884543;29;20126;-92
2022/05/14 13:20:42;;;;;;;11.90;4.20;;;20.70;1.00;;;;;;4884456;29;20100;-92
2022/05/14 13:23:21;;;;;;;16.35;4.72;;;20.90;1.00;;;;;;4884131;29;20440;-91
2022/05/14 13:25:59;;;;;;;12.15;3.03;;;20.90;1.00;;;;;;4884130;29;20057;-92
2022/05/14 13:28:33;;;;;;;14.18;4.40;;;20.90;1.00;;;;;;4884454;29;20056;-92
2022/05/14 13:31:04;;;;;;;7.75;2.85;;;20.90;1.00;;;;;;4884005;29;20050;-92
2022/05/14 13:33:38;;;;;;;11.27;2.83;;;21.10;1.00;;;;;;4899525;29;20093;-92
2022/05/14 13:39:05;;;;;;;10.80;3.20;;;21.20;1.00;;;;;;4884226;29;20056;-92